createdAt,value
2023-08-18T00:00:23.377Z,102672.00
2023-08-18T00:02:50.136Z,102662.22
2023-08-18T00:05:16.905Z,102663.16
2023-08-18T00:07:43.657Z,102666.72
2023-08-18T00:10:10.715Z,102656.09
2023-08-18T00:12:37.463Z,102674.72
2023-08-18T00:15:04.662Z,102668.53
2023-08-18T00:17:31.878Z,102667.63
2023-08-18T00:19:58.816Z,102672.97
2023-08-18T00:22:25.574Z,102667.72
2023-08-18T00:24:52.789Z,102667.69
2023-08-18T00:27:19.528Z,102668.56
2023-08-18T00:29:46.303Z,102664.09
2023-08-18T00:32:13.064Z,102678.28
2023-08-18T00:34:39.790Z,102674.72
2023-08-18T00:37:06.595Z,102674.72
2023-08-18T00:39:33.285Z,102677.31
2023-08-18T00:42:00.025Z,102666.72
2023-08-18T00:44:26.746Z,102677.28
2023-08-18T00:46:53.725Z,102671.09
2023-08-18T00:49:21.532Z,102673.75
2023-08-18T00:51:48.847Z,102675.53
2023-08-18T00:54:17.372Z,102672.88
2023-08-18T00:56:44.296Z,102675.56
2023-08-18T00:59:11.135Z,102680.81
2023-08-18T01:01:38.557Z,102656.97
2023-08-18T01:04:06.263Z,102668.41
2023-08-18T01:06:33.511Z,102677.28
2023-08-18T01:09:00.255Z,102664.03
2023-08-18T01:11:40.667Z,102676.41
2023-08-18T01:14:52.144Z,102672.88
2023-08-18T01:17:28.860Z,102676.44
2023-08-18T01:19:56.241Z,102673.75
2023-08-18T01:22:25.277Z,102667.53
2023-08-18T01:25:00.208Z,102663.94
2023-08-18T01:27:27.454Z,102675.47
2023-08-18T01:29:54.379Z,102674.59
2023-08-18T01:32:24.639Z,102658.59
2023-08-18T01:34:54.073Z,102664.81
2023-08-18T01:37:23.077Z,102666.56
2023-08-18T01:39:51.276Z,102660.34
2023-08-18T01:42:18.090Z,102663.78
2023-08-18T01:44:44.826Z,102665.53
2023-08-18T01:47:11.503Z,102663.72
2023-08-18T01:49:38.200Z,102653.94
2023-08-18T01:52:05.234Z,102650.41
2023-08-18T01:54:31.921Z,102661.78
2023-08-18T01:57:00.326Z,102667.97
2023-08-18T01:59:27.271Z,102658.19
2023-08-18T02:01:53.952Z,102659.97
2023-08-18T02:04:20.677Z,102647.63
2023-08-18T02:06:47.381Z,102655.53
2023-08-18T02:09:15.132Z,102655.47
2023-08-18T02:11:41.818Z,102654.66
2023-08-18T02:14:08.667Z,102659.06
2023-08-18T02:16:38.315Z,102654.59
2023-08-18T02:19:05.014Z,102646.59
2023-08-18T02:21:32.481Z,102650.13
2023-08-18T02:23:59.297Z,102647.41
2023-08-18T02:26:26.195Z,102654.56
2023-08-18T02:28:52.914Z,102652.84
2023-08-18T02:31:19.722Z,102651.88
2023-08-18T02:33:46.443Z,102653.72
2023-08-18T02:36:14.201Z,102646.66
2023-08-18T02:38:41.113Z,102643.97
2023-08-18T02:41:08.827Z,102642.28
2023-08-18T02:43:35.637Z,102655.47
2023-08-18T02:46:02.548Z,102651.06
2023-08-18T02:48:30.643Z,102644.84
2023-08-18T02:51:11.057Z,102643.97
2023-08-18T02:53:38.611Z,102640.41
2023-08-18T02:56:05.772Z,102645.75
2023-08-18T02:58:34.752Z,102643.13
2023-08-18T03:01:07.023Z,102638.59
2023-08-18T03:03:37.279Z,102638.66
2023-08-18T03:06:06.707Z,102643.88
2023-08-18T03:08:37.337Z,102640.28
2023-08-18T03:11:04.523Z,102648.19
2023-08-18T03:13:31.601Z,102640.19
2023-08-18T03:15:58.844Z,102647.22
2023-08-18T03:18:25.721Z,102649.91
2023-08-18T03:21:00.510Z,102642.75
2023-08-18T03:23:27.458Z,102647.03
2023-08-18T03:26:05.198Z,102640.81
2023-08-18T03:28:33.959Z,102662.91
2023-08-18T03:31:01.933Z,102655.75
2023-08-18T03:33:29.194Z,102661.88
2023-08-18T03:35:56.608Z,102649.47
2023-08-18T03:38:24.463Z,102652.84
2023-08-18T03:40:57.217Z,102655.44
2023-08-18T03:43:23.943Z,102659.75
2023-08-18T03:45:50.675Z,102665.84
2023-08-18T03:48:17.334Z,102655.09
2023-08-18T03:50:44.441Z,102653.19
2023-08-18T03:53:11.123Z,102658.31
2023-08-18T03:55:37.847Z,102658.19
2023-08-18T03:58:04.780Z,102650.00
2023-08-18T04:00:31.425Z,102652.56
2023-08-18T04:02:59.211Z,102645.31
2023-08-18T04:05:25.921Z,102624.09
2023-08-18T04:07:52.640Z,102647.72
2023-08-18T04:10:19.359Z,102645.78
2023-08-18T04:12:46.062Z,102638.56
2023-08-18T04:15:12.799Z,102649.97
2023-08-18T04:17:39.514Z,102637.34
2023-08-18T04:20:07.097Z,102642.56
2023-08-18T04:22:33.893Z,102647.75
2023-08-18T04:25:00.548Z,102646.75
2023-08-18T04:27:27.283Z,102655.47
2023-08-18T04:29:54.075Z,102655.34
2023-08-18T04:32:20.792Z,102639.22
2023-08-18T04:34:47.497Z,102652.38
2023-08-18T04:37:14.163Z,102656.66
2023-08-18T04:39:40.813Z,102643.19
2023-08-18T04:42:07.546Z,102651.03
2023-08-18T04:44:34.460Z,102644.72
2023-08-18T04:47:04.426Z,102649.94
2023-08-18T04:49:31.172Z,102663.13
2023-08-18T04:51:57.842Z,102668.31
2023-08-18T04:54:24.488Z,102664.75
2023-08-18T04:56:59.226Z,102657.47
2023-08-18T04:59:29.108Z,102658.28
2023-08-18T05:01:55.853Z,102653.72
2023-08-18T05:04:23.354Z,102646.44
2023-08-18T05:06:50.025Z,102650.81
2023-08-18T05:09:16.689Z,102649.81
2023-08-18T05:11:43.549Z,102645.34
2023-08-18T05:14:10.328Z,102646.84
2023-08-18T05:16:37.130Z,102652.03
2023-08-18T05:19:04.011Z,102643.84
2023-08-18T05:21:30.714Z,102650.88
2023-08-18T05:23:57.457Z,102649.78
2023-08-18T05:26:24.233Z,102646.09
2023-08-18T05:28:51.020Z,102655.75
2023-08-18T05:31:17.673Z,102641.41
2023-08-18T05:33:44.425Z,102648.25
2023-08-18T05:36:11.391Z,102647.25
2023-08-18T05:38:38.218Z,102646.22
2023-08-18T05:41:11.785Z,102648.84
2023-08-18T05:43:39.699Z,102640.56
2023-08-18T05:46:07.261Z,102636.97
2023-08-18T05:48:34.640Z,102642.00
2023-08-18T05:51:02.010Z,102643.69
2023-08-18T05:53:29.480Z,102649.69
2023-08-18T05:55:56.222Z,102648.56
2023-08-18T05:58:22.973Z,102650.09
2023-08-18T06:00:51.024Z,102649.13
2023-08-18T06:03:21.017Z,102650.63
2023-08-18T06:05:48.750Z,102652.19
2023-08-18T06:08:15.748Z,102657.38
2023-08-18T06:10:42.505Z,102654.53
2023-08-18T06:13:09.947Z,102656.06
2023-08-18T06:15:37.702Z,102646.06
2023-08-18T06:18:04.639Z,102653.81
2023-08-18T06:20:31.708Z,102653.66
2023-08-18T06:22:58.538Z,102645.59
2023-08-18T06:25:25.246Z,102658.69
2023-08-18T06:27:51.945Z,102651.47
2023-08-18T06:30:18.670Z,102653.03
2023-08-18T06:32:46.953Z,102657.31
2023-08-18T06:35:13.861Z,102670.53
2023-08-18T06:37:40.725Z,102668.59
2023-08-18T06:40:08.361Z,102661.28
2023-08-18T06:42:35.136Z,102666.50
2023-08-18T06:45:01.893Z,102666.31
2023-08-18T06:47:28.890Z,102666.13
2023-08-18T06:49:55.713Z,102665.22
2023-08-18T06:52:22.522Z,102676.53
2023-08-18T06:54:49.567Z,102674.56
2023-08-18T06:57:16.268Z,102682.44
2023-08-18T06:59:43.088Z,102684.94
2023-08-18T07:02:09.785Z,102675.06
2023-08-18T07:04:36.742Z,102686.44
2023-08-18T07:07:04.549Z,102690.78
2023-08-18T07:09:31.278Z,102681.78
2023-08-18T07:11:57.948Z,102677.28
2023-08-18T07:14:24.618Z,102682.44
2023-08-18T07:16:51.320Z,102684.22
2023-08-18T07:19:18.099Z,102677.06
2023-08-18T07:21:44.819Z,102685.91
2023-08-18T07:24:11.562Z,102690.25
2023-08-18T07:26:38.288Z,102690.16
2023-08-18T07:29:08.895Z,102704.16
2023-08-18T07:31:35.622Z,102693.25
2023-08-18T07:34:02.625Z,102694.13
2023-08-18T07:36:29.345Z,102697.31
2023-08-18T07:38:56.188Z,102698.09
2023-08-18T07:41:22.952Z,102698.84
2023-08-18T07:43:49.650Z,102703.91
2023-08-18T07:46:16.451Z,102706.34
2023-08-18T07:48:44.428Z,102703.41
2023-08-18T07:51:11.452Z,102710.28
2023-08-18T07:53:38.386Z,102702.09
2023-08-18T07:56:05.638Z,102708.25
2023-08-18T07:58:32.450Z,102702.09
2023-08-18T08:00:59.474Z,102708.13
2023-08-18T08:03:26.291Z,102709.81
2023-08-18T08:05:53.189Z,102704.31
2023-08-18T08:08:19.875Z,102712.19
2023-08-18T08:10:46.585Z,102712.88
2023-08-18T08:13:13.341Z,102714.50
2023-08-18T08:15:40.195Z,102717.06
2023-08-18T08:18:12.324Z,102717.72
2023-08-18T08:20:39.352Z,102720.16
2023-08-18T08:23:06.080Z,102723.53
2023-08-18T08:25:37.512Z,102727.84
2023-08-18T08:28:04.848Z,102720.41
2023-08-18T08:30:36.100Z,102716.53
2023-08-18T08:33:05.875Z,102713.81
2023-08-18T08:35:33.376Z,102719.78
2023-08-18T08:38:00.944Z,102726.09
2023-08-18T08:40:27.802Z,102723.34
2023-08-18T08:42:55.916Z,102728.53
2023-08-18T08:45:24.096Z,102732.69
2023-08-18T08:47:52.114Z,102727.13
2023-08-18T08:50:19.413Z,102725.22
2023-08-18T08:52:51.834Z,102723.31
2023-08-18T08:55:24.717Z,102724.06
2023-08-18T08:57:51.755Z,102721.38
2023-08-18T09:00:18.540Z,102731.88
2023-08-18T09:02:47.745Z,102731.56
2023-08-18T09:05:15.411Z,102735.59
2023-08-18T09:07:42.756Z,102720.91
2023-08-18T09:10:14.975Z,102721.13
2023-08-18T09:12:42.175Z,102724.94
2023-08-18T09:15:13.336Z,102719.81
2023-08-18T09:17:44.627Z,102706.03
2023-08-18T09:20:14.309Z,102719.88
2023-08-18T09:22:45.505Z,102722.31
2023-08-18T09:25:13.901Z,102726.78
2023-08-18T09:27:40.844Z,102722.25
2023-08-18T09:30:08.064Z,102721.41
2023-08-18T09:32:37.719Z,102716.22
2023-08-18T09:35:11.456Z,102725.97
2023-08-18T09:37:38.286Z,102730.50
2023-08-18T09:40:05.858Z,102715.63
2023-08-18T09:42:32.863Z,102716.50
2023-08-18T09:45:01.220Z,102723.97
2023-08-18T09:47:31.114Z,102724.97
2023-08-18T09:49:59.905Z,102716.97
2023-08-18T09:52:30.097Z,102707.25
2023-08-18T09:55:12.388Z,102711.59
2023-08-18T09:57:48.891Z,102698.88
2023-08-18T10:00:17.939Z,102705.66
2023-08-18T10:02:48.238Z,102703.59
2023-08-18T10:05:16.052Z,102708.06
2023-08-18T10:07:43.414Z,102700.16
2023-08-18T10:10:10.217Z,102709.31
2023-08-18T10:12:36.890Z,102709.22
2023-08-18T10:15:04.135Z,102712.06
2023-08-18T10:17:30.894Z,102713.19
2023-08-18T10:20:02.186Z,102712.00
2023-08-18T10:22:31.817Z,102718.19
2023-08-18T10:24:58.782Z,102707.63
2023-08-18T10:27:28.610Z,102717.16
2023-08-18T10:30:01.613Z,102716.78
2023-08-18T10:32:29.163Z,102720.91
2023-08-18T10:35:19.408Z,102729.44
2023-08-18T10:37:49.015Z,102726.56
2023-08-18T10:40:32.168Z,102724.75
2023-08-18T10:43:15.883Z,102731.81
2023-08-18T10:45:43.525Z,102728.09
2023-08-18T10:48:14.606Z,102724.34
2023-08-18T10:50:44.477Z,102727.03
2023-08-18T10:53:13.303Z,102722.59
2023-08-18T10:55:42.248Z,102720.00
2023-08-18T10:58:09.045Z,102716.19
2023-08-18T11:00:38.625Z,102712.53
2023-08-18T11:03:07.606Z,102719.59
2023-08-18T11:05:35.072Z,102709.13
2023-08-18T11:08:03.251Z,102711.09
2023-08-18T11:10:30.849Z,102706.97
2023-08-18T11:12:59.668Z,102709.56
2023-08-18T11:15:27.035Z,102714.03
2023-08-18T11:17:53.917Z,102710.28
2023-08-18T11:20:21.186Z,102703.88
2023-08-18T11:22:54.460Z,102713.56
2023-08-18T11:25:24.642Z,102702.91
2023-08-18T11:27:54.259Z,102710.94
2023-08-18T11:30:22.516Z,102718.03
2023-08-18T11:32:49.560Z,102726.13
2023-08-18T11:35:20.073Z,102723.47
2023-08-18T11:37:49.368Z,102726.19
2023-08-18T11:40:20.546Z,102735.13
2023-08-18T11:42:49.154Z,102727.19
2023-08-18T11:45:25.847Z,102721.03
2023-08-18T11:48:01.595Z,102728.16
2023-08-18T11:50:39.353Z,102733.56
2023-08-18T11:53:10.759Z,102729.91
2023-08-18T11:55:45.951Z,102729.75
2023-08-18T11:58:16.503Z,102722.69
2023-08-18T12:00:46.487Z,102720.78
2023-08-18T12:03:27.798Z,102718.31
2023-08-18T12:05:59.368Z,102719.44
2023-08-18T12:08:30.084Z,102707.03
2023-08-18T12:10:58.963Z,102713.53
2023-08-18T12:13:31.703Z,102710.84
2023-08-18T12:15:58.846Z,102707.38
2023-08-18T12:18:25.539Z,102706.41
2023-08-18T12:20:52.253Z,102698.22
2023-08-18T12:23:18.987Z,102704.28
2023-08-18T12:25:45.832Z,102704.03
2023-08-18T12:28:12.536Z,102700.94
2023-08-18T12:30:39.260Z,102701.31
2023-08-18T12:33:06.069Z,102697.69
2023-08-18T12:35:33.053Z,102701.31
2023-08-18T12:37:59.853Z,102707.69
2023-08-18T12:40:26.559Z,102691.03
2023-08-18T12:42:53.303Z,102699.13
2023-08-18T12:45:21.275Z,102701.66
2023-08-18T12:47:48.206Z,102704.28
2023-08-18T12:50:15.854Z,102702.28
2023-08-18T12:52:43.010Z,102703.75
2023-08-18T12:55:09.812Z,102698.28
2023-08-18T12:57:37.587Z,102695.75
2023-08-18T13:00:04.900Z,102691.28
2023-08-18T13:02:31.852Z,102702.28
2023-08-18T13:04:58.841Z,102690.69
2023-08-18T13:07:25.583Z,102700.41
2023-08-18T13:09:52.290Z,102702.78
2023-08-18T13:12:19.447Z,102701.22
2023-08-18T13:14:46.381Z,102694.19
2023-08-18T13:17:13.897Z,102703.16
2023-08-18T13:22:10.592Z,102701.00
2023-08-18T13:24:37.308Z,102693.72
2023-08-18T13:27:04.244Z,102694.50
2023-08-18T13:29:30.978Z,102705.84
2023-08-18T13:31:57.709Z,102700.25
2023-08-18T13:34:24.390Z,102705.59
2023-08-18T13:36:52.096Z,102703.75
2023-08-18T13:39:20.499Z,102702.16
2023-08-18T13:41:48.150Z,102696.09
2023-08-18T13:44:15.342Z,102708.03
2023-08-18T13:46:43.092Z,102708.19
2023-08-18T13:49:12.190Z,102712.81
2023-08-18T13:51:40.686Z,102706.97
2023-08-18T13:54:12.731Z,102709.03
2023-08-18T13:56:40.994Z,102710.69
2023-08-18T13:59:07.807Z,102712.38
2023-08-18T14:01:34.724Z,102706.88
2023-08-18T14:04:02.276Z,102714.91
2023-08-18T14:06:29.000Z,102710.47
2023-08-18T14:08:55.780Z,102717.50
2023-08-18T14:11:22.453Z,102713.91
2023-08-18T14:13:49.104Z,102719.44
2023-08-18T14:16:15.910Z,102719.59
2023-08-18T14:18:42.618Z,102720.72
2023-08-18T14:21:09.312Z,102721.50
2023-08-18T14:23:35.959Z,102715.38
2023-08-18T14:26:02.671Z,102715.22
2023-08-18T14:28:29.453Z,102718.72
2023-08-18T14:30:56.604Z,102718.50
2023-08-18T14:33:35.155Z,102720.09
2023-08-18T14:36:09.849Z,102710.88
2023-08-18T14:38:37.491Z,102713.53
2023-08-18T14:41:06.171Z,102718.38
2023-08-18T14:43:33.017Z,102717.88
2023-08-18T14:46:00.216Z,102712.94
2023-08-18T14:48:30.514Z,102709.41
2023-08-18T14:50:57.962Z,102709.28
2023-08-18T14:53:24.765Z,102698.16
2023-08-18T14:55:52.636Z,102699.69
2023-08-18T14:58:23.834Z,102707.69
2023-08-18T15:00:52.362Z,102710.69
2023-08-18T15:03:19.217Z,102713.88
2023-08-18T15:05:45.971Z,102714.41
2023-08-18T15:08:12.594Z,102716.78
2023-08-18T15:10:40.435Z,102707.25
2023-08-18T15:13:07.176Z,102721.75
2023-08-18T15:15:33.883Z,102710.31
2023-08-18T15:18:00.583Z,102711.25
2023-08-18T15:20:27.314Z,102709.53
2023-08-18T15:22:54.099Z,102703.09
2023-08-18T15:25:20.811Z,102711.81
2023-08-18T15:27:47.533Z,102713.44
2023-08-18T15:30:15.182Z,102710.75
2023-08-18T15:32:42.136Z,102701.94
2023-08-18T15:35:09.056Z,102709.31
2023-08-18T15:37:35.694Z,102697.16
2023-08-18T15:40:03.606Z,102698.31
2023-08-18T15:42:30.287Z,102703.94
2023-08-18T15:44:56.988Z,102690.84
2023-08-18T15:47:23.751Z,102693.72
2023-08-18T15:49:50.555Z,102694.03
2023-08-18T15:52:19.394Z,102687.00
2023-08-18T15:54:47.324Z,102678.19
2023-08-18T15:57:14.027Z,102675.63
2023-08-18T15:59:40.678Z,102677.47
2023-08-18T16:02:07.422Z,102683.81
2023-08-18T16:04:34.775Z,102687.53
2023-08-18T16:07:02.869Z,102686.22
2023-08-18T16:09:29.555Z,102683.75
2023-08-18T16:11:56.204Z,102672.50
2023-08-18T16:14:58.279Z,102674.69
2023-08-18T16:17:11.803Z,102674.13
2023-08-18T16:19:38.483Z,102667.53
2023-08-18T16:22:05.288Z,102674.88
2023-08-18T16:24:32.268Z,102677.94
2023-08-18T16:26:59.887Z,102679.91
2023-08-18T16:29:26.682Z,102674.66
2023-08-18T16:31:53.784Z,102678.34
2023-08-18T16:34:22.858Z,102674.13
2023-08-18T16:36:50.301Z,102671.63
2023-08-18T16:39:17.849Z,102671.03
2023-08-18T16:41:44.648Z,102666.72
2023-08-18T16:44:11.521Z,102674.88
2023-08-18T16:46:38.785Z,102675.09
2023-08-18T16:49:05.512Z,102671.69
2023-08-18T16:51:32.346Z,102671.94
2023-08-18T16:53:58.996Z,102674.00
2023-08-18T16:56:25.735Z,102672.28
2023-08-18T16:58:52.362Z,102672.41
2023-08-18T17:01:19.091Z,102660.91
2023-08-18T17:03:46.252Z,102670.28
2023-08-18T17:06:12.976Z,102663.19
2023-08-18T17:08:39.679Z,102656.19
2023-08-18T17:11:06.376Z,102655.38
2023-08-18T17:13:33.129Z,102664.41
2023-08-18T17:15:59.807Z,102661.00
2023-08-18T17:18:26.575Z,102652.38
2023-08-18T17:20:53.374Z,102657.13
2023-08-18T17:23:21.415Z,102652.72
2023-08-18T17:25:49.921Z,102652.97
2023-08-18T17:28:17.681Z,102647.09
2023-08-18T17:30:45.885Z,102650.69
2023-08-18T17:33:13.193Z,102652.63
2023-08-18T17:35:39.941Z,102655.34
2023-08-18T17:38:07.509Z,102660.84
2023-08-18T17:40:36.982Z,102655.59
2023-08-18T17:43:06.898Z,102660.09
2023-08-18T17:45:36.089Z,102654.94
2023-08-18T17:48:02.986Z,102663.19
2023-08-18T17:50:29.804Z,102662.53
2023-08-18T17:52:57.996Z,102662.78
2023-08-18T17:55:25.486Z,102661.94
2023-08-18T17:57:52.261Z,102665.66
2023-08-18T18:00:19.186Z,102659.59
2023-08-18T18:02:46.137Z,102660.75
2023-08-18T18:05:15.118Z,102645.88
2023-08-18T18:07:42.256Z,102646.88
2023-08-18T18:10:09.401Z,102655.97
2023-08-18T18:12:36.420Z,102658.81
2023-08-18T18:15:03.180Z,102664.31
2023-08-18T18:17:33.506Z,102666.31
2023-08-18T18:20:00.375Z,102652.16
2023-08-18T18:22:27.169Z,102670.16
2023-08-18T18:24:54.499Z,102652.75
2023-08-18T18:27:21.245Z,102673.19
2023-08-18T18:29:48.335Z,102660.13
2023-08-18T18:32:14.986Z,102658.41
2023-08-18T18:34:41.659Z,102655.84
2023-08-18T18:37:10.455Z,102658.72
2023-08-18T18:39:37.800Z,102658.81
2023-08-18T18:42:05.740Z,102650.09
2023-08-18T18:44:35.644Z,102649.22
2023-08-18T18:47:03.873Z,102643.31
2023-08-18T18:49:30.554Z,102652.28
2023-08-18T18:51:57.305Z,102645.31
2023-08-18T18:54:24.897Z,102644.47
2023-08-18T18:56:51.626Z,102642.06
2023-08-18T18:59:18.477Z,102640.34
2023-08-18T19:01:45.373Z,102644.16
2023-08-18T19:04:12.132Z,102652.19
2023-08-18T19:06:38.775Z,102650.56
2023-08-18T19:09:05.483Z,102656.00
2023-08-18T19:11:32.186Z,102646.31
2023-08-18T19:13:58.886Z,102635.78
2023-08-18T19:16:25.581Z,102645.63
2023-08-18T19:18:52.292Z,102644.84
2023-08-18T19:21:18.977Z,102658.41
2023-08-18T19:23:46.288Z,102649.63
2023-08-18T19:26:13.067Z,102657.75
2023-08-18T19:28:39.990Z,102656.13
2023-08-18T19:31:09.456Z,102655.31
2023-08-18T19:33:36.157Z,102655.50
2023-08-18T19:36:03.751Z,102660.16
2023-08-18T19:38:31.000Z,102660.41
2023-08-18T19:40:58.201Z,102658.72
2023-08-18T19:43:24.915Z,102659.78
2023-08-18T19:46:01.203Z,102656.38
2023-08-18T19:48:28.781Z,102667.22
2023-08-18T19:50:56.490Z,102662.03
2023-08-18T19:53:24.639Z,102663.00
2023-08-18T19:55:52.153Z,102646.34
2023-08-18T19:58:19.208Z,102642.84
2023-08-18T20:00:47.118Z,102652.75
2023-08-18T20:03:13.934Z,102644.94
2023-08-18T20:05:40.620Z,102659.22
2023-08-18T20:08:11.722Z,102655.78
2023-08-18T20:10:38.791Z,102654.94
2023-08-18T20:13:05.505Z,102663.97
2023-08-18T20:15:32.367Z,102656.13
2023-08-18T20:17:59.178Z,102653.53
2023-08-18T20:20:25.915Z,102650.94
2023-08-18T20:22:52.866Z,102652.88
2023-08-18T20:25:19.674Z,102655.69
2023-08-18T20:27:46.528Z,102645.13
2023-08-18T20:30:13.443Z,102644.19
2023-08-18T20:32:40.613Z,102653.09
2023-08-18T20:35:08.520Z,102646.06
2023-08-18T20:37:35.278Z,102642.50
2023-08-18T20:40:02.067Z,102642.69
2023-08-18T20:42:28.859Z,102632.06
2023-08-18T20:44:55.603Z,102640.97
2023-08-18T20:47:22.308Z,102654.28
2023-08-18T20:49:52.023Z,102634.97
2023-08-18T20:52:18.714Z,102635.75
2023-08-18T20:54:45.389Z,102640.16
2023-08-18T20:57:12.108Z,102630.47
2023-08-18T20:59:38.907Z,102638.41
2023-08-18T21:02:05.667Z,102624.34
2023-08-18T21:04:32.452Z,102637.56
2023-08-18T21:06:59.343Z,102631.44
2023-08-18T21:09:26.945Z,102648.34
2023-08-18T21:11:54.153Z,102634.25
2023-08-18T21:14:21.713Z,102645.66
2023-08-18T21:16:48.393Z,102649.22
2023-08-18T21:19:15.106Z,102645.59
2023-08-18T21:21:41.769Z,102662.56
2023-08-18T21:24:08.516Z,102645.66
2023-08-18T21:26:35.207Z,102644.72
2023-08-18T21:29:02.626Z,102641.09
2023-08-18T21:31:29.361Z,102641.09
2023-08-18T21:33:56.310Z,102638.44
2023-08-18T21:36:25.593Z,102631.28
2023-08-18T21:38:53.330Z,102618.00
2023-08-18T21:41:20.402Z,102632.09
2023-08-18T21:43:47.244Z,102628.53
2023-08-18T21:46:14.092Z,102622.25
2023-08-18T21:48:42.167Z,102628.53
2023-08-18T21:51:09.849Z,102617.94
2023-08-18T21:53:36.582Z,102622.31
2023-08-18T21:56:04.543Z,102630.25
2023-08-18T21:58:31.380Z,102625.88
2023-08-18T22:00:58.759Z,102631.19
2023-08-18T22:03:25.964Z,102624.13
2023-08-18T22:05:53.421Z,102618.78
2023-08-18T22:08:20.294Z,102617.03
2023-08-18T22:10:47.035Z,102611.75
2023-08-18T22:13:14.113Z,102613.53
2023-08-18T22:15:40.856Z,102600.28
2023-08-18T22:18:08.046Z,102601.16
2023-08-18T22:20:34.893Z,102600.28
2023-08-18T22:23:01.640Z,102598.56
2023-08-18T22:25:28.348Z,102599.47
2023-08-18T22:27:55.818Z,102593.31
2023-08-18T22:30:22.580Z,102603.97
2023-08-18T22:32:49.337Z,102588.09
2023-08-18T22:35:16.132Z,102595.09
2023-08-18T22:37:44.034Z,102601.38
2023-08-18T22:40:11.824Z,102604.97
2023-08-18T22:42:39.610Z,102596.09
2023-08-18T22:45:11.028Z,102600.44
2023-08-18T22:47:39.745Z,102598.75
2023-08-18T22:50:07.878Z,102593.38
2023-08-18T22:52:35.189Z,102594.22
2023-08-18T22:55:02.492Z,102590.69
2023-08-18T22:57:29.646Z,102589.81
2023-08-18T22:59:56.898Z,102580.06
2023-08-18T23:02:23.918Z,102588.94
2023-08-18T23:04:50.670Z,102581.75
2023-08-18T23:07:18.717Z,102588.88
2023-08-18T23:09:46.366Z,102579.94
2023-08-18T23:12:13.196Z,102584.41
2023-08-18T23:14:39.984Z,102591.53
2023-08-18T23:17:07.071Z,102579.91
2023-08-18T23:19:34.511Z,102577.25
2023-08-18T23:22:01.266Z,102574.50
2023-08-18T23:24:27.942Z,102569.16
2023-08-18T23:26:54.617Z,102574.41
2023-08-18T23:29:21.379Z,102576.09
2023-08-18T23:31:48.409Z,102574.28
2023-08-18T23:34:15.090Z,102576.94
2023-08-18T23:36:42.187Z,102571.59
2023-08-18T23:39:10.331Z,102570.69
2023-08-18T23:41:37.319Z,102573.31
2023-08-18T23:44:04.646Z,102578.59
2023-08-18T23:46:31.447Z,102584.72
2023-08-18T23:48:58.246Z,102578.47
2023-08-18T23:51:24.959Z,102562.63
2023-08-18T23:53:51.726Z,102570.44
2023-08-18T23:56:18.464Z,102565.88
2023-08-18T23:58:45.539Z,102553.44
